Maryland METAR Reports


Distance/Direction noted is from Ellicott City, MD as the crow flies

KCBE - Cumberland - 118 miles WNW
Updated: Fri, 10/31/2014 2:57 PM
Mostly Cloudy
Mostly Cloudy
 Wind from calm
Wind: Calm
Temperature: 52°F
Dew Point: 34°F
Humidity: 50%
Barometer: 29.90 inHg
Clouds: Mostly Cloudy
Visibility: 10 miles
Cloud Details: Partly Cloudy 4300 ft
Mostly Cloudy 6000 ft
2014/10/31 18:57 KCBE 311857Z AUTO 00000KT 10SM SCT043 BKN060 11/01 A2990 RMK AO1
KHGR - Hagerstown - 57 miles NW
Updated: Fri, 10/31/2014 2:53 PM
Overcast
Overcast
 Wind from calm
Wind: Calm
Temperature: 52°F
Dew Point: 36°F
Humidity: 54%
Barometer: 29.88 inHg
Clouds: Overcast
Visibility: 10 miles
Cloud Details: Few Clouds 3700 ft
Overcast 5000 ft
2014/10/31 18:53 KHGR 311853Z 00000KT 10SM FEW037 OVC050 11/02 A2988 RMK AO2 SLP131 T01110017
 
KFDK - Frederick - 34 miles NW
Updated: Fri, 10/31/2014 1:45 PM
NOT Current
Overcast
Overcast
 Wind from calm
Wind: Calm
Temperature: 59°F
Dew Point: 36°F
Humidity: 42%
Barometer: 29.94 inHg
Clouds: Overcast
Visibility: 10 miles
Cloud Details: Partly Cloudy 3700 ft
Overcast 6000 ft
2014/10/31 17:45 KFDK 311745Z 00000KT 10SM SCT037 OVC060 15/02 A2994
KGAI - Gaithersburg - 26 miles SW
Updated: Fri, 10/31/2014 2:55 PM
Overcast
Overcast
 Wind from calm
Wind: Calm
Temperature: 52°F
Dew Point: 34°F
Humidity: 50%
Barometer: 29.92 inHg
Clouds: Overcast
Visibility: 10 miles
Cloud Details: Overcast 5000 ft
2014/10/31 18:55 KGAI 311855Z 00000KT 10SM OVC050 11/01 A2992 RMK AO1
 
KBWI - BWI Airport - 15 miles SE
Updated: Fri, 10/31/2014 2:54 PM
Mostly Cloudy
Mostly Cloudy
 Wind from NNW
Wind: NNW 3 mph
Temperature: 57°F
Dew Point: 34°F
Humidity: 41%
Barometer: 29.89 inHg
Clouds: Mostly Cloudy
Visibility: 10 miles
Cloud Details: Few Clouds 2700 ft
Partly Cloudy 5500 ft
Mostly Cloudy 15000 ft
Mostly Cloudy 25000 ft
2014/10/31 18:54 KBWI 311854Z 33003KT 10SM FEW027 SCT055 BKN150 BKN250 14/01 A2989 RMK AO2 SLP120 T01390006
KNAK - Annapolis - 32 miles SSE
Updated: Fri, 10/31/2014 2:54 PM
Clear
Clear
 Wind from N
Wind: N 8 mph
Temperature: 55°F
Dew Point: 36°F
Humidity: 47%
Barometer: 29.89 inHg
Clouds: Clear
Visibility: 10 miles
2014/10/31 18:54 KNAK 311854Z AUTO 36007KT 10SM CLR 13/02 A2989 RMK AO2 SLP122 T01280017
 
KESN - Easton - 63 miles SE
Updated: Fri, 10/31/2014 2:50 PM
Few Clouds
Few Clouds
 Wind from NNE
Wind: NNE 9 mph
Temperature: 57°F
Dew Point: 36°F
Humidity: 44%
Barometer: 29.91 inHg
Clouds: Few Clouds
Visibility: 10 miles
Cloud Details: Few Clouds 8000 ft
2014/10/31 18:50 KESN 311850Z 02008KT 10SM FEW080 14/02 A2991
KSBY - Salisbury - 112 miles SE
Updated: Fri, 10/31/2014 2:54 PM
Overcast
Overcast
 Wind from N
Wind: N 9 mph
Temperature: 57°F
Dew Point: 36°F
Humidity: 44%
Barometer: 29.86 inHg
Clouds: Overcast
Visibility: 10 miles
Cloud Details: Overcast 4900 ft
2014/10/31 18:54 KSBY 311854Z 36008KT 10SM OVC049 14/02 A2986 RMK AO2 SLP112 T01390022